sensor_id;sensor_type;location;lat;lon;timestamp;P1;durP1;ratioP1;P2;durP2;ratioP2
14282;SDS011;7225;59.282;18.344;2023-05-10T00:00:41;7.93;;;4.13;;
14282;SDS011;7225;59.282;18.344;2023-05-10T00:03:08;6.67;;;4.37;;
14282;SDS011;7225;59.282;18.344;2023-05-10T00:05:35;6.00;;;4.43;;
14282;SDS011;7225;59.282;18.344;2023-05-10T00:08:02;7.00;;;3.77;;
14282;SDS011;7225;59.282;18.344;2023-05-10T00:10:29;7.00;;;4.40;;
14282;SDS011;7225;59.282;18.344;2023-05-10T00:12:57;6.43;;;4.57;;
14282;SDS011;7225;59.282;18.344;2023-05-10T00:15:24;6.27;;;4.60;;
14282;SDS011;7225;59.282;18.344;2023-05-10T00:17:51;6.10;;;4.50;;
14282;SDS011;7225;59.282;18.344;2023-05-10T00:20:17;7.17;;;4.37;;
14282;SDS011;7225;59.282;18.344;2023-05-10T00:22:45;10.63;;;4.67;;
14282;SDS011;7225;59.282;18.344;2023-05-10T00:25:12;6.03;;;4.00;;
14282;SDS011;7225;59.282;18.344;2023-05-10T00:27:39;5.93;;;4.23;;
14282;SDS011;7225;59.282;18.344;2023-05-10T00:30:06;5.80;;;4.07;;
14282;SDS011;7225;59.282;18.344;2023-05-10T00:32:33;6.17;;;4.50;;
14282;SDS011;7225;59.282;18.344;2023-05-10T00:35:00;5.57;;;4.03;;
14282;SDS011;7225;59.282;18.344;2023-05-10T00:37:27;6.10;;;4.30;;
14282;SDS011;7225;59.282;18.344;2023-05-10T00:39:54;5.57;;;4.23;;
14282;SDS011;7225;59.282;18.344;2023-05-10T00:42:21;8.27;;;4.57;;
14282;SDS011;7225;59.282;18.344;2023-05-10T00:44:48;7.10;;;4.03;;
14282;SDS011;7225;59.282;18.344;2023-05-10T00:47:15;5.90;;;4.20;;
14282;SDS011;7225;59.282;18.344;2023-05-10T00:49:43;6.43;;;4.60;;
14282;SDS011;7225;59.282;18.344;2023-05-10T00:52:10;6.47;;;4.77;;
14282;SDS011;7225;59.282;18.344;2023-05-10T00:54:37;5.00;;;4.03;;
14282;SDS011;7225;59.282;18.344;2023-05-10T00:57:04;5.80;;;4.23;;
14282;SDS011;7225;59.282;18.344;2023-05-10T00:59:32;6.33;;;3.90;;
14282;SDS011;7225;59.282;18.344;2023-05-10T01:01:59;6.27;;;4.60;;
14282;SDS011;7225;59.282;18.344;2023-05-10T01:04:26;6.27;;;3.97;;
14282;SDS011;7225;59.282;18.344;2023-05-10T01:06:54;8.37;;;4.70;;
14282;SDS011;7225;59.282;18.344;2023-05-10T01:09:21;8.03;;;4.37;;
14282;SDS011;7225;59.282;18.344;2023-05-10T01:11:49;5.07;;;4.40;;
14282;SDS011;7225;59.282;18.344;2023-05-10T01:14:17;6.83;;;4.23;;
14282;SDS011;7225;59.282;18.344;2023-05-10T01:16:46;4.70;;;3.80;;
14282;SDS011;7225;59.282;18.344;2023-05-10T01:22:02;7.13;;;4.40;;
14282;SDS011;7225;59.282;18.344;2023-05-10T01:30:05;4.67;;;3.87;;
14282;SDS011;7225;59.282;18.344;2023-05-10T01:32:43;4.80;;;3.90;;
14282;SDS011;7225;59.282;18.344;2023-05-10T01:35:17;5.93;;;4.07;;
14282;SDS011;7225;59.282;18.344;2023-05-10T01:38:18;6.53;;;4.20;;
14282;SDS011;7225;59.282;18.344;2023-05-10T01:43:32;7.63;;;4.33;;
14282;SDS011;7225;59.282;18.344;2023-05-10T01:46:07;6.67;;;4.40;;
14282;SDS011;7225;59.282;18.344;2023-05-10T01:48:41;6.50;;;4.63;;
14282;SDS011;7225;59.282;18.344;2023-05-10T01:51:15;6.53;;;5.53;;
14282;SDS011;7225;59.282;18.344;2023-05-10T01:53:51;6.10;;;4.67;;
14282;SDS011;7225;59.282;18.344;2023-05-10T01:56:23;5.07;;;4.27;;
14282;SDS011;7225;59.282;18.344;2023-05-10T01:58:54;7.73;;;4.90;;
14282;SDS011;7225;59.282;18.344;2023-05-10T02:01:22;6.83;;;4.83;;
14282;SDS011;7225;59.282;18.344;2023-05-10T02:03:52;5.10;;;4.20;;
14282;SDS011;7225;59.282;18.344;2023-05-10T02:06:21;7.70;;;4.33;;
14282;SDS011;7225;59.282;18.344;2023-05-10T02:08:50;5.70;;;4.33;;
14282;SDS011;7225;59.282;18.344;2023-05-10T02:11:18;4.87;;;4.27;;
14282;SDS011;7225;59.282;18.344;2023-05-10T02:13:48;6.00;;;4.40;;
14282;SDS011;7225;59.282;18.344;2023-05-10T02:16:16;5.13;;;4.00;;
14282;SDS011;7225;59.282;18.344;2023-05-10T02:18:48;5.77;;;4.10;;
14282;SDS011;7225;59.282;18.344;2023-05-10T02:21:19;6.23;;;3.90;;
14282;SDS011;7225;59.282;18.344;2023-05-10T02:23:48;4.67;;;4.00;;
14282;SDS011;7225;59.282;18.344;2023-05-10T02:26:18;6.53;;;3.87;;
14282;SDS011;7225;59.282;18.344;2023-05-10T02:28:54;5.00;;;3.90;;
14282;SDS011;7225;59.282;18.344;2023-05-10T02:31:23;4.80;;;3.53;;
14282;SDS011;7225;59.282;18.344;2023-05-10T02:33:51;5.50;;;3.97;;
14282;SDS011;7225;59.282;18.344;2023-05-10T02:36:19;9.37;;;4.50;;
14282;SDS011;7225;59.282;18.344;2023-05-10T02:38:48;7.43;;;3.70;;
14282;SDS011;7225;59.282;18.344;2023-05-10T02:41:18;5.87;;;3.80;;
14282;SDS011;7225;59.282;18.344;2023-05-10T02:43:51;5.80;;;4.33;;
14282;SDS011;7225;59.282;18.344;2023-05-10T02:46:22;6.03;;;4.70;;
14282;SDS011;7225;59.282;18.344;2023-05-10T02:48:49;7.23;;;4.70;;
14282;SDS011;7225;59.282;18.344;2023-05-10T02:51:16;5.00;;;4.30;;
14282;SDS011;7225;59.282;18.344;2023-05-10T02:53:45;5.23;;;4.60;;
14282;SDS011;7225;59.282;18.344;2023-05-10T02:56:14;7.20;;;4.80;;
14282;SDS011;7225;59.282;18.344;2023-05-10T02:58:50;7.23;;;4.17;;
14282;SDS011;7225;59.282;18.344;2023-05-10T03:01:17;5.90;;;4.30;;
14282;SDS011;7225;59.282;18.344;2023-05-10T03:03:44;6.83;;;5.40;;
14282;SDS011;7225;59.282;18.344;2023-05-10T03:06:11;4.87;;;4.37;;
14282;SDS011;7225;59.282;18.344;2023-05-10T03:08:38;7.53;;;4.80;;
14282;SDS011;7225;59.282;18.344;2023-05-10T03:16:40;6.30;;;4.73;;
14282;SDS011;7225;59.282;18.344;2023-05-10T03:19:32;7.30;;;4.50;;
14282;SDS011;7225;59.282;18.344;2023-05-10T03:22:24;6.60;;;5.10;;
14282;SDS011;7225;59.282;18.344;2023-05-10T03:24:56;6.27;;;5.23;;
14282;SDS011;7225;59.282;18.344;2023-05-10T03:27:24;9.40;;;5.43;;
14282;SDS011;7225;59.282;18.344;2023-05-10T03:29:53;7.10;;;4.97;;
14282;SDS011;7225;59.282;18.344;2023-05-10T03:32:22;5.10;;;4.53;;
14282;SDS011;7225;59.282;18.344;2023-05-10T03:34:49;7.77;;;4.33;;
14282;SDS011;7225;59.282;18.344;2023-05-10T03:37:16;7.33;;;4.60;;
14282;SDS011;7225;59.282;18.344;2023-05-10T03:39:43;6.30;;;4.80;;
14282;SDS011;7225;59.282;18.344;2023-05-10T03:42:10;5.83;;;4.90;;
14282;SDS011;7225;59.282;18.344;2023-05-10T03:44:38;6.40;;;5.67;;
14282;SDS011;7225;59.282;18.344;2023-05-10T03:47:06;7.23;;;4.83;;
14282;SDS011;7225;59.282;18.344;2023-05-10T03:49:33;6.43;;;5.60;;
14282;SDS011;7225;59.282;18.344;2023-05-10T03:52:00;9.53;;;5.33;;
14282;SDS011;7225;59.282;18.344;2023-05-10T03:54:27;7.57;;;5.30;;
14282;SDS011;7225;59.282;18.344;2023-05-10T03:56:54;6.60;;;5.30;;
14282;SDS011;7225;59.282;18.344;2023-05-10T03:59:21;6.50;;;5.13;;
14282;SDS011;7225;59.282;18.344;2023-05-10T04:01:48;10.20;;;6.00;;
14282;SDS011;7225;59.282;18.344;2023-05-10T04:04:15;6.17;;;5.07;;
14282;SDS011;7225;59.282;18.344;2023-05-10T04:06:45;7.23;;;6.20;;
14282;SDS011;7225;59.282;18.344;2023-05-10T04:09:12;7.23;;;6.03;;
14282;SDS011;7225;59.282;18.344;2023-05-10T04:11:39;7.63;;;5.40;;
14282;SDS011;7225;59.282;18.344;2023-05-10T04:14:06;9.03;;;5.83;;
14282;SDS011;7225;59.282;18.344;2023-05-10T04:16:33;10.00;;;5.97;;
14282;SDS011;7225;59.282;18.344;2023-05-10T04:19:00;9.23;;;5.37;;
14282;SDS011;7225;59.282;18.344;2023-05-10T04:21:27;6.67;;;5.37;;
14282;SDS011;7225;59.282;18.344;2023-05-10T04:23:54;7.60;;;6.00;;
14282;SDS011;7225;59.282;18.344;2023-05-10T04:26:21;5.57;;;5.03;;
14282;SDS011;7225;59.282;18.344;2023-05-10T04:28:48;8.73;;;5.37;;
14282;SDS011;7225;59.282;18.344;2023-05-10T04:31:15;6.43;;;5.33;;
14282;SDS011;7225;59.282;18.344;2023-05-10T04:33:42;6.83;;;5.30;;
14282;SDS011;7225;59.282;18.344;2023-05-10T04:36:09;6.27;;;4.93;;
14282;SDS011;7225;59.282;18.344;2023-05-10T04:38:36;7.67;;;4.73;;
14282;SDS011;7225;59.282;18.344;2023-05-10T04:41:04;7.40;;;5.00;;
14282;SDS011;7225;59.282;18.344;2023-05-10T04:43:34;8.73;;;5.10;;
14282;SDS011;7225;59.282;18.344;2023-05-10T04:46:02;6.63;;;5.10;;
14282;SDS011;7225;59.282;18.344;2023-05-10T04:48:31;5.90;;;4.53;;
14282;SDS011;7225;59.282;18.344;2023-05-10T04:50:58;7.10;;;5.03;;
14282;SDS011;7225;59.282;18.344;2023-05-10T04:53:25;7.67;;;5.50;;
14282;SDS011;7225;59.282;18.344;2023-05-10T04:55:52;7.83;;;4.67;;
14282;SDS011;7225;59.282;18.344;2023-05-10T04:58:19;9.73;;;5.30;;
14282;SDS011;7225;59.282;18.344;2023-05-10T05:00:46;5.63;;;4.60;;
14282;SDS011;7225;59.282;18.344;2023-05-10T05:03:13;7.10;;;4.83;;
14282;SDS011;7225;59.282;18.344;2023-05-10T05:05:40;8.63;;;4.17;;
14282;SDS011;7225;59.282;18.344;2023-05-10T05:08:07;8.03;;;5.03;;
14282;SDS011;7225;59.282;18.344;2023-05-10T05:10:34;6.33;;;4.70;;
14282;SDS011;7225;59.282;18.344;2023-05-10T05:13:01;6.63;;;4.30;;
14282;SDS011;7225;59.282;18.344;2023-05-10T05:15:28;5.43;;;4.27;;
14282;SDS011;7225;59.282;18.344;2023-05-10T05:17:56;8.30;;;4.10;;
14282;SDS011;7225;59.282;18.344;2023-05-10T05:20:23;7.43;;;5.00;;
14282;SDS011;7225;59.282;18.344;2023-05-10T05:22:50;6.13;;;4.07;;
14282;SDS011;7225;59.282;18.344;2023-05-10T05:25:17;5.73;;;4.50;;
14282;SDS011;7225;59.282;18.344;2023-05-10T05:27:44;4.97;;;4.13;;
14282;SDS011;7225;59.282;18.344;2023-05-10T05:30:11;9.87;;;4.40;;
14282;SDS011;7225;59.282;18.344;2023-05-10T05:32:38;5.13;;;4.00;;
14282;SDS011;7225;59.282;18.344;2023-05-10T05:35:06;5.90;;;4.07;;
14282;SDS011;7225;59.282;18.344;2023-05-10T05:37:33;6.40;;;4.00;;
14282;SDS011;7225;59.282;18.344;2023-05-10T05:40:00;4.83;;;4.20;;
14282;SDS011;7225;59.282;18.344;2023-05-10T05:42:28;5.30;;;4.07;;
14282;SDS011;7225;59.282;18.344;2023-05-10T05:44:55;5.30;;;3.90;;
14282;SDS011;7225;59.282;18.344;2023-05-10T05:47:22;6.40;;;4.10;;
14282;SDS011;7225;59.282;18.344;2023-05-10T05:49:49;5.47;;;3.93;;
14282;SDS011;7225;59.282;18.344;2023-05-10T05:52:16;4.03;;;3.20;;
14282;SDS011;7225;59.282;18.344;2023-05-10T05:54:43;5.20;;;3.40;;
14282;SDS011;7225;59.282;18.344;2023-05-10T05:57:10;4.60;;;3.60;;
14282;SDS011;7225;59.282;18.344;2023-05-10T05:59:37;4.40;;;3.80;;
14282;SDS011;7225;59.282;18.344;2023-05-10T06:02:10;6.83;;;3.43;;
14282;SDS011;7225;59.282;18.344;2023-05-10T06:04:37;3.83;;;3.47;;
14282;SDS011;7225;59.282;18.344;2023-05-10T06:07:04;4.20;;;3.27;;
14282;SDS011;7225;59.282;18.344;2023-05-10T06:09:31;3.43;;;3.13;;
14282;SDS011;7225;59.282;18.344;2023-05-10T06:11:58;4.80;;;3.70;;
14282;SDS011;7225;59.282;18.344;2023-05-10T06:14:25;5.87;;;3.60;;
14282;SDS011;7225;59.282;18.344;2023-05-10T06:16:52;3.77;;;2.97;;
14282;SDS011;7225;59.282;18.344;2023-05-10T06:19:19;3.90;;;3.30;;
14282;SDS011;7225;59.282;18.344;2023-05-10T06:21:46;6.63;;;3.20;;
14282;SDS011;7225;59.282;18.344;2023-05-10T06:24:13;5.70;;;3.47;;
14282;SDS011;7225;59.282;18.344;2023-05-10T06:26:40;6.33;;;3.37;;
14282;SDS011;7225;59.282;18.344;2023-05-10T06:29:07;5.33;;;3.37;;
14282;SDS011;7225;59.282;18.344;2023-05-10T06:31:34;3.87;;;3.23;;
14282;SDS011;7225;59.282;18.344;2023-05-10T06:34:02;9.80;;;3.63;;
14282;SDS011;7225;59.282;18.344;2023-05-10T06:36:29;4.07;;;3.03;;
14282;SDS011;7225;59.282;18.344;2023-05-10T06:38:56;4.60;;;3.50;;
14282;SDS011;7225;59.282;18.344;2023-05-10T06:41:23;3.77;;;3.33;;
14282;SDS011;7225;59.282;18.344;2023-05-10T06:43:50;3.63;;;2.93;;
14282;SDS011;7225;59.282;18.344;2023-05-10T06:46:17;6.27;;;2.83;;
14282;SDS011;7225;59.282;18.344;2023-05-10T06:48:44;3.60;;;3.07;;
14282;SDS011;7225;59.282;18.344;2023-05-10T06:51:12;4.83;;;3.00;;
14282;SDS011;7225;59.282;18.344;2023-05-10T06:53:39;9.03;;;3.07;;
14282;SDS011;7225;59.282;18.344;2023-05-10T06:56:06;8.63;;;3.50;;
14282;SDS011;7225;59.282;18.344;2023-05-10T06:58:33;5.17;;;2.97;;
14282;SDS011;7225;59.282;18.344;2023-05-10T07:01:03;3.50;;;3.20;;
14282;SDS011;7225;59.282;18.344;2023-05-10T07:03:31;4.43;;;3.50;;
14282;SDS011;7225;59.282;18.344;2023-05-10T07:06:02;5.33;;;3.20;;
14282;SDS011;7225;59.282;18.344;2023-05-10T07:08:33;4.07;;;3.23;;
14282;SDS011;7225;59.282;18.344;2023-05-10T07:11:01;4.57;;;3.50;;
14282;SDS011;7225;59.282;18.344;2023-05-10T07:13:33;3.50;;;3.20;;
14282;SDS011;7225;59.282;18.344;2023-05-10T07:16:01;4.87;;;3.27;;
14282;SDS011;7225;59.282;18.344;2023-05-10T07:18:29;5.00;;;3.47;;
14282;SDS011;7225;59.282;18.344;2023-05-10T07:20:56;4.23;;;3.40;;
14282;SDS011;7225;59.282;18.344;2023-05-10T07:23:24;3.83;;;3.43;;
14282;SDS011;7225;59.282;18.344;2023-05-10T07:25:51;6.70;;;3.70;;
14282;SDS011;7225;59.282;18.344;2023-05-10T07:28:18;7.03;;;3.10;;
14282;SDS011;7225;59.282;18.344;2023-05-10T07:30:46;5.40;;;3.13;;
14282;SDS011;7225;59.282;18.344;2023-05-10T07:33:14;3.70;;;2.70;;
14282;SDS011;7225;59.282;18.344;2023-05-10T07:35:42;3.43;;;2.77;;
14282;SDS011;7225;59.282;18.344;2023-05-10T07:38:09;3.40;;;3.00;;
14282;SDS011;7225;59.282;18.344;2023-05-10T07:40:39;4.43;;;3.20;;
14282;SDS011;7225;59.282;18.344;2023-05-10T07:43:06;4.17;;;2.80;;
14282;SDS011;7225;59.282;18.344;2023-05-10T07:45:33;3.83;;;2.87;;
14282;SDS011;7225;59.282;18.344;2023-05-10T07:48:00;5.97;;;3.00;;
14282;SDS011;7225;59.282;18.344;2023-05-10T07:50:28;4.93;;;3.10;;
14282;SDS011;7225;59.282;18.344;2023-05-10T07:52:55;5.57;;;2.97;;
14282;SDS011;7225;59.282;18.344;2023-05-10T07:55:22;4.33;;;2.93;;
14282;SDS011;7225;59.282;18.344;2023-05-10T07:57:49;3.80;;;3.17;;
14282;SDS011;7225;59.282;18.344;2023-05-10T08:00:16;4.17;;;3.00;;
14282;SDS011;7225;59.282;18.344;2023-05-10T08:02:45;4.47;;;2.90;;
14282;SDS011;7225;59.282;18.344;2023-05-10T08:05:12;4.07;;;2.70;;
14282;SDS011;7225;59.282;18.344;2023-05-10T08:07:40;3.37;;;2.97;;
14282;SDS011;7225;59.282;18.344;2023-05-10T08:10:07;3.00;;;2.70;;
14282;SDS011;7225;59.282;18.344;2023-05-10T08:12:35;4.87;;;3.43;;
14282;SDS011;7225;59.282;18.344;2023-05-10T08:15:02;6.63;;;3.10;;
14282;SDS011;7225;59.282;18.344;2023-05-10T08:17:29;3.40;;;2.90;;
14282;SDS011;7225;59.282;18.344;2023-05-10T08:19:56;6.83;;;3.00;;
14282;SDS011;7225;59.282;18.344;2023-05-10T08:22:23;5.77;;;2.90;;
14282;SDS011;7225;59.282;18.344;2023-05-10T08:24:50;5.17;;;2.93;;
14282;SDS011;7225;59.282;18.344;2023-05-10T08:27:18;3.47;;;2.90;;
14282;SDS011;7225;59.282;18.344;2023-05-10T08:29:45;3.83;;;3.17;;
14282;SDS011;7225;59.282;18.344;2023-05-10T08:32:16;4.43;;;2.80;;
14282;SDS011;7225;59.282;18.344;2023-05-10T08:34:43;3.30;;;2.90;;
14282;SDS011;7225;59.282;18.344;2023-05-10T08:37:10;3.47;;;2.90;;
14282;SDS011;7225;59.282;18.344;2023-05-10T08:39:40;5.23;;;3.73;;
14282;SDS011;7225;59.282;18.344;2023-05-10T08:42:07;4.93;;;3.40;;
14282;SDS011;7225;59.282;18.344;2023-05-10T08:44:35;5.63;;;3.57;;
14282;SDS011;7225;59.282;18.344;2023-05-10T08:47:06;5.23;;;2.90;;
14282;SDS011;7225;59.282;18.344;2023-05-10T08:49:34;5.27;;;3.00;;
14282;SDS011;7225;59.282;18.344;2023-05-10T08:52:02;3.97;;;2.90;;
14282;SDS011;7225;59.282;18.344;2023-05-10T08:54:32;4.20;;;3.03;;
14282;SDS011;7225;59.282;18.344;2023-05-10T08:56:59;4.27;;;3.30;;
14282;SDS011;7225;59.282;18.344;2023-05-10T08:59:27;6.63;;;3.23;;
14282;SDS011;7225;59.282;18.344;2023-05-10T09:01:55;5.17;;;3.10;;
14282;SDS011;7225;59.282;18.344;2023-05-10T09:04:25;5.93;;;3.53;;
14282;SDS011;7225;59.282;18.344;2023-05-10T09:06:52;4.30;;;3.03;;
14282;SDS011;7225;59.282;18.344;2023-05-10T09:09:20;4.53;;;3.30;;
14282;SDS011;7225;59.282;18.344;2023-05-10T09:11:49;4.37;;;3.33;;
14282;SDS011;7225;59.282;18.344;2023-05-10T09:14:16;5.97;;;3.70;;
14282;SDS011;7225;59.282;18.344;2023-05-10T09:16:43;5.33;;;3.33;;
14282;SDS011;7225;59.282;18.344;2023-05-10T09:19:11;5.00;;;3.93;;
14282;SDS011;7225;59.282;18.344;2023-05-10T09:21:38;5.30;;;3.70;;
14282;SDS011;7225;59.282;18.344;2023-05-10T09:24:05;4.13;;;3.27;;
14282;SDS011;7225;59.282;18.344;2023-05-10T09:26:33;4.83;;;3.70;;
14282;SDS011;7225;59.282;18.344;2023-05-10T09:29:02;4.90;;;3.53;;
14282;SDS011;7225;59.282;18.344;2023-05-10T09:31:43;9.23;;;3.57;;
14282;SDS011;7225;59.282;18.344;2023-05-10T09:34:17;4.67;;;3.63;;
14282;SDS011;7225;59.282;18.344;2023-05-10T09:36:52;4.50;;;4.00;;
14282;SDS011;7225;59.282;18.344;2023-05-10T09:39:20;5.97;;;3.30;;
14282;SDS011;7225;59.282;18.344;2023-05-10T09:41:56;6.87;;;4.20;;
14282;SDS011;7225;59.282;18.344;2023-05-10T09:44:25;6.20;;;3.53;;
14282;SDS011;7225;59.282;18.344;2023-05-10T09:46:52;5.83;;;3.67;;
14282;SDS011;7225;59.282;18.344;2023-05-10T09:49:20;8.90;;;4.00;;
14282;SDS011;7225;59.282;18.344;2023-05-10T09:51:59;4.07;;;3.50;;
14282;SDS011;7225;59.282;18.344;2023-05-10T09:54:27;4.77;;;3.47;;
14282;SDS011;7225;59.282;18.344;2023-05-10T09:56:54;7.23;;;3.10;;
14282;SDS011;7225;59.282;18.344;2023-05-10T09:59:21;4.43;;;2.80;;
14282;SDS011;7225;59.282;18.344;2023-05-10T10:01:53;6.87;;;3.30;;
14282;SDS011;7225;59.282;18.344;2023-05-10T10:04:24;5.23;;;3.30;;
14282;SDS011;7225;59.282;18.344;2023-05-10T10:07:01;4.78;;;3.45;;
14282;SDS011;7225;59.282;18.344;2023-05-10T10:09:29;4.23;;;3.53;;
14282;SDS011;7225;59.282;18.344;2023-05-10T10:11:57;5.60;;;3.40;;
14282;SDS011;7225;59.282;18.344;2023-05-10T10:14:26;6.28;;;3.38;;
14282;SDS011;7225;59.282;18.344;2023-05-10T10:16:53;5.25;;;3.00;;
14282;SDS011;7225;59.282;18.344;2023-05-10T10:19:35;7.45;;;3.45;;
14282;SDS011;7225;59.282;18.344;2023-05-10T10:22:03;4.30;;;3.17;;
14282;SDS011;7225;59.282;18.344;2023-05-10T10:24:31;6.07;;;3.53;;
14282;SDS011;7225;59.282;18.344;2023-05-10T10:27:04;6.00;;;3.50;;
14282;SDS011;7225;59.282;18.344;2023-05-10T10:29:47;3.47;;;2.80;;
14282;SDS011;7225;59.282;18.344;2023-05-10T10:35:03;3.55;;;3.03;;
14282;SDS011;7225;59.282;18.344;2023-05-10T10:37:47;5.78;;;3.10;;
14282;SDS011;7225;59.282;18.344;2023-05-10T10:40:32;4.15;;;2.85;;
14282;SDS011;7225;59.282;18.344;2023-05-10T10:48:40;3.53;;;2.80;;
14282;SDS011;7225;59.282;18.344;2023-05-10T10:51:08;5.22;;;3.22;;
14282;SDS011;7225;59.282;18.344;2023-05-10T10:53:38;6.60;;;3.50;;
14282;SDS011;7225;59.282;18.344;2023-05-10T10:56:09;4.03;;;3.10;;
14282;SDS011;7225;59.282;18.344;2023-05-10T10:58:40;6.10;;;3.00;;
14282;SDS011;7225;59.282;18.344;2023-05-10T11:06:30;3.63;;;2.75;;
14282;SDS011;7225;59.282;18.344;2023-05-10T11:08:58;5.00;;;2.85;;
14282;SDS011;7225;59.282;18.344;2023-05-10T11:11:31;3.30;;;2.10;;
14282;SDS011;7225;59.282;18.344;2023-05-10T11:14:03;5.63;;;3.17;;
14282;SDS011;7225;59.282;18.344;2023-05-10T11:16:44;3.38;;;2.78;;
14282;SDS011;7225;59.282;18.344;2023-05-10T11:19:12;3.10;;;2.75;;
14282;SDS011;7225;59.282;18.344;2023-05-10T11:21:50;3.75;;;2.72;;
14282;SDS011;7225;59.282;18.344;2023-05-10T11:24:37;4.65;;;3.13;;
14282;SDS011;7225;59.282;18.344;2023-05-10T11:27:05;3.35;;;2.50;;
14282;SDS011;7225;59.282;18.344;2023-05-10T11:29:32;2.53;;;2.33;;
14282;SDS011;7225;59.282;18.344;2023-05-10T11:31:59;4.25;;;3.00;;
14282;SDS011;7225;59.282;18.344;2023-05-10T11:34:30;2.92;;;1.95;;
14282;SDS011;7225;59.282;18.344;2023-05-10T11:37:00;2.35;;;2.15;;
14282;SDS011;7225;59.282;18.344;2023-05-10T11:39:28;5.47;;;2.17;;
14282;SDS011;7225;59.282;18.344;2023-05-10T11:41:57;4.30;;;2.63;;
14282;SDS011;7225;59.282;18.344;2023-05-10T11:44:31;2.92;;;2.47;;
14282;SDS011;7225;59.282;18.344;2023-05-10T11:47:01;3.22;;;2.25;;
14282;SDS011;7225;59.282;18.344;2023-05-10T11:49:29;4.65;;;2.75;;
14282;SDS011;7225;59.282;18.344;2023-05-10T11:52:03;3.42;;;2.47;;
14282;SDS011;7225;59.282;18.344;2023-05-10T11:54:31;2.70;;;2.40;;
14282;SDS011;7225;59.282;18.344;2023-05-10T11:57:01;3.15;;;2.47;;
14282;SDS011;7225;59.282;18.344;2023-05-10T11:59:28;3.15;;;2.30;;
14282;SDS011;7225;59.282;18.344;2023-05-10T12:01:55;2.92;;;2.63;;
14282;SDS011;7225;59.282;18.344;2023-05-10T12:04:22;4.90;;;2.38;;
14282;SDS011;7225;59.282;18.344;2023-05-10T12:06:49;3.28;;;2.33;;
14282;SDS011;7225;59.282;18.344;2023-05-10T12:09:16;3.75;;;2.42;;
14282;SDS011;7225;59.282;18.344;2023-05-10T12:11:57;6.05;;;3.13;;
14282;SDS011;7225;59.282;18.344;2023-05-10T12:14:24;3.95;;;2.40;;
14282;SDS011;7225;59.282;18.344;2023-05-10T12:16:50;3.03;;;2.42;;
14282;SDS011;7225;59.282;18.344;2023-05-10T12:19:18;4.55;;;2.30;;
14282;SDS011;7225;59.282;18.344;2023-05-10T12:21:47;2.25;;;2.05;;
14282;SDS011;7225;59.282;18.344;2023-05-10T12:24:15;4.15;;;2.20;;
14282;SDS011;7225;59.282;18.344;2023-05-10T12:26:45;5.72;;;2.28;;
14282;SDS011;7225;59.282;18.344;2023-05-10T12:29:30;2.38;;;2.17;;
14282;SDS011;7225;59.282;18.344;2023-05-10T12:31:57;3.63;;;2.20;;
14282;SDS011;7225;59.282;18.344;2023-05-10T12:34:33;4.20;;;2.10;;
14282;SDS011;7225;59.282;18.344;2023-05-10T12:37:01;4.28;;;2.20;;
14282;SDS011;7225;59.282;18.344;2023-05-10T12:42:25;4.95;;;2.30;;
14282;SDS011;7225;59.282;18.344;2023-05-10T12:44:55;2.03;;;1.83;;
14282;SDS011;7225;59.282;18.344;2023-05-10T12:47:23;2.88;;;2.30;;
14282;SDS011;7225;59.282;18.344;2023-05-10T12:49:50;2.67;;;2.22;;
14282;SDS011;7225;59.282;18.344;2023-05-10T12:52:17;4.30;;;1.83;;
14282;SDS011;7225;59.282;18.344;2023-05-10T12:54:44;3.65;;;2.30;;
14282;SDS011;7225;59.282;18.344;2023-05-10T12:57:12;4.63;;;2.35;;
14282;SDS011;7225;59.282;18.344;2023-05-10T12:59:39;4.55;;;2.40;;
14282;SDS011;7225;59.282;18.344;2023-05-10T13:02:07;5.68;;;1.77;;
14282;SDS011;7225;59.282;18.344;2023-05-10T13:04:34;3.35;;;2.38;;
14282;SDS011;7225;59.282;18.344;2023-05-10T13:07:03;2.35;;;1.83;;
14282;SDS011;7225;59.282;18.344;2023-05-10T13:09:30;4.05;;;2.25;;
14282;SDS011;7225;59.282;18.344;2023-05-10T13:11:57;4.05;;;2.15;;
14282;SDS011;7225;59.282;18.344;2023-05-10T13:14:24;5.65;;;2.47;;
14282;SDS011;7225;59.282;18.344;2023-05-10T13:16:52;2.33;;;2.00;;
14282;SDS011;7225;59.282;18.344;2023-05-10T13:19:19;8.50;;;2.28;;
14282;SDS011;7225;59.282;18.344;2023-05-10T13:21:46;2.92;;;2.00;;
14282;SDS011;7225;59.282;18.344;2023-05-10T13:24:13;4.00;;;2.33;;
14282;SDS011;7225;59.282;18.344;2023-05-10T13:26:40;3.13;;;2.10;;
14282;SDS011;7225;59.282;18.344;2023-05-10T13:29:07;2.20;;;2.00;;
14282;SDS011;7225;59.282;18.344;2023-05-10T13:31:35;4.45;;;2.30;;
14282;SDS011;7225;59.282;18.344;2023-05-10T13:34:02;2.92;;;2.28;;
14282;SDS011;7225;59.282;18.344;2023-05-10T13:36:29;3.05;;;1.85;;
14282;SDS011;7225;59.282;18.344;2023-05-10T13:38:56;3.60;;;1.75;;
14282;SDS011;7225;59.282;18.344;2023-05-10T13:41:23;3.88;;;2.00;;
14282;SDS011;7225;59.282;18.344;2023-05-10T13:43:51;2.22;;;1.80;;
14282;SDS011;7225;59.282;18.344;2023-05-10T13:46:18;3.10;;;2.15;;
14282;SDS011;7225;59.282;18.344;2023-05-10T13:48:45;2.97;;;2.30;;
14282;SDS011;7225;59.282;18.344;2023-05-10T13:51:12;2.92;;;2.10;;
14282;SDS011;7225;59.282;18.344;2023-05-10T13:53:39;3.05;;;1.92;;
14282;SDS011;7225;59.282;18.344;2023-05-10T13:56:06;3.03;;;1.88;;
14282;SDS011;7225;59.282;18.344;2023-05-10T13:58:33;2.40;;;2.15;;
14282;SDS011;7225;59.282;18.344;2023-05-10T14:01:01;4.20;;;2.50;;
14282;SDS011;7225;59.282;18.344;2023-05-10T14:03:28;4.43;;;2.20;;
14282;SDS011;7225;59.282;18.344;2023-05-10T14:05:55;3.65;;;2.05;;
14282;SDS011;7225;59.282;18.344;2023-05-10T14:08:22;2.30;;;2.00;;
14282;SDS011;7225;59.282;18.344;2023-05-10T14:10:49;5.68;;;2.03;;
14282;SDS011;7225;59.282;18.344;2023-05-10T14:13:17;3.30;;;2.10;;
14282;SDS011;7225;59.282;18.344;2023-05-10T14:15:43;4.88;;;2.28;;
14282;SDS011;7225;59.282;18.344;2023-05-10T14:18:11;3.08;;;1.90;;
14282;SDS011;7225;59.282;18.344;2023-05-10T14:20:37;4.05;;;1.98;;
14282;SDS011;7225;59.282;18.344;2023-05-10T14:23:05;1.90;;;1.67;;
14282;SDS011;7225;59.282;18.344;2023-05-10T14:25:32;3.78;;;2.08;;
14282;SDS011;7225;59.282;18.344;2023-05-10T14:27:59;2.90;;;1.98;;
14282;SDS011;7225;59.282;18.344;2023-05-10T14:30:26;3.40;;;2.10;;
14282;SDS011;7225;59.282;18.344;2023-05-10T14:32:53;2.73;;;2.17;;
14282;SDS011;7225;59.282;18.344;2023-05-10T14:35:20;4.20;;;1.92;;
14282;SDS011;7225;59.282;18.344;2023-05-10T14:37:47;2.00;;;1.80;;
14282;SDS011;7225;59.282;18.344;2023-05-10T14:40:14;4.38;;;1.98;;
14282;SDS011;7225;59.282;18.344;2023-05-10T14:42:43;4.80;;;1.90;;
14282;SDS011;7225;59.282;18.344;2023-05-10T14:45:10;2.37;;;1.53;;
14282;SDS011;7225;59.282;18.344;2023-05-10T14:47:38;2.10;;;1.90;;
14282;SDS011;7225;59.282;18.344;2023-05-10T14:50:05;2.50;;;2.20;;
14282;SDS011;7225;59.282;18.344;2023-05-10T14:52:32;4.07;;;2.00;;
14282;SDS011;7225;59.282;18.344;2023-05-10T14:54:59;2.42;;;1.98;;
14282;SDS011;7225;59.282;18.344;2023-05-10T14:57:27;2.67;;;1.80;;
14282;SDS011;7225;59.282;18.344;2023-05-10T14:59:56;4.30;;;1.83;;
14282;SDS011;7225;59.282;18.344;2023-05-10T15:02:24;3.57;;;1.80;;
14282;SDS011;7225;59.282;18.344;2023-05-10T15:04:51;2.60;;;1.80;;
14282;SDS011;7225;59.282;18.344;2023-05-10T15:07:19;2.77;;;1.83;;
14282;SDS011;7225;59.282;18.344;2023-05-10T15:09:52;2.10;;;1.43;;
14282;SDS011;7225;59.282;18.344;2023-05-10T15:12:19;2.13;;;1.83;;
14282;SDS011;7225;59.282;18.344;2023-05-10T15:14:46;4.97;;;1.80;;
14282;SDS011;7225;59.282;18.344;2023-05-10T15:17:13;2.87;;;2.10;;
14282;SDS011;7225;59.282;18.344;2023-05-10T15:19:41;2.33;;;2.00;;
14282;SDS011;7225;59.282;18.344;2023-05-10T15:22:08;5.10;;;1.80;;
14282;SDS011;7225;59.282;18.344;2023-05-10T15:24:35;2.67;;;1.60;;
14282;SDS011;7225;59.282;18.344;2023-05-10T15:27:02;3.90;;;1.97;;
14282;SDS011;7225;59.282;18.344;2023-05-10T15:29:29;3.30;;;2.00;;